Time;durP1;ratioP1;P1;durP2;ratioP2;P2;SDS_P1;SDS_P2;PMS_P1;PMS_P2;Temp;Humidity;BMP_temperature;BMP_pressure;BME280_temperature;BME280_humidity;BME280_pressure;Samples;Min_cycle;Max_cycle;Signal;HPM_P1;HPM_P2
2022/08/27 00:01:20;;;;;;;;;;;;;;;;;;5016620;28;19906;-67
2022/08/27 00:03:46;;;;;;;;;;;;;;;;;;5017083;28;19921;-68
2022/08/27 00:06:12;;;;;;;;;;;;;;;;;;5016378;28;19905;-67
2022/08/27 00:08:38;;;;;;;;;;;;;;;;;;5015987;28;19906;-67
2022/08/27 00:11:04;;;;;;;;;;;;;;;;;;5016866;28;20059;-67
2022/08/27 00:13:30;;;;;;;;;;;;;;;;;;5016251;28;19906;-68
2022/08/27 00:15:56;;;;;;;;;;;;;;;;;;5015388;28;20003;-68
2022/08/27 00:18:22;;;;;;;;;;;;;;;;;;5015610;28;20004;-68
2022/08/27 00:20:48;;;;;;;;;;;;;;;;;;5016455;28;20288;-68
2022/08/27 00:23:14;;;;;;;;;;;;;;;;;;5015141;28;20003;-68
2022/08/27 00:25:39;;;;;;;;;;;;;;;;;;5015426;28;19905;-69
2022/08/27 00:28:05;;;;;;;;;;;;;;;;;;5016174;28;19905;-68
2022/08/27 00:30:31;;;;;;;;;;;;;;;;;;5015178;28;20368;-68
2022/08/27 00:32:57;;;;;;;;;;;;;;;;;;5016977;28;19906;-68
2022/08/27 00:35:23;;;;;;;;;;;;;;;;;;5015425;28;20000;-68
2022/08/27 00:37:49;;;;;;;;;;;;;;;;;;5017012;28;19912;-68
2022/08/27 00:40:15;;;;;;;;;;;;;;;;;;5016182;28;20354;-68
2022/08/27 00:42:41;;;;;;;;;;;;;;;;;;5016211;28;19909;-68
2022/08/27 00:45:07;;;;;;;;;;;;;;;;;;5015003;28;19906;-67
2022/08/27 00:47:33;;;;;;;;;;;;;;;;;;5015092;28;19910;-68
2022/08/27 00:49:59;;;;;;;;;;;;;;;;;;5016652;28;19905;-68
2022/08/27 00:52:25;;;;;;;;;;;;;;;;;;5016279;28;19905;-68
2022/08/27 00:54:51;;;;;;;;;;;;;;;;;;5015309;28;19956;-68
2022/08/27 00:57:17;;;;;;;;;;;;;;;;;;5015289;28;19928;-68
2022/08/27 00:59:43;;;;;;;;;;;;;;;;;;5016878;28;19996;-68
2022/08/27 01:02:18;;;;;;;;;;;;;;;;;;5015746;28;19910;-68
2022/08/27 01:04:44;;;;;;;;;;;;;;;;;;5016583;28;19931;-68
2022/08/27 01:07:10;;;;;;;;;;;;;;;;;;5016268;28;19912;-68
2022/08/27 01:09:36;;;;;;;;;;;;;;;;;;5014746;28;19967;-68
2022/08/27 01:12:01;;;;;;;;;;;;;;;;;;5016720;28;19906;-67
2022/08/27 01:14:27;;;;;;;;;;;;;;;;;;5016439;28;20440;-68
2022/08/27 01:16:53;;;;;;;;;;;;;;;;;;5014539;28;19909;-68
2022/08/27 01:19:19;;;;;;;;;;;;;;;;;;5015892;28;19905;-68
2022/08/27 01:21:45;;;;;;;;;;;;;;;;;;5016570;28;19913;-68
2022/08/27 01:24:11;;;;;;;;;;;;;;;;;;5014853;28;19913;-68
2022/08/27 01:26:37;;;;;;;;;;;;;;;;;;5016091;28;19906;-68
2022/08/27 01:29:03;;;;;;;;;;;;;;;;;;5015452;28;20239;-68
2022/08/27 01:31:29;;;;;;;;;;;;;;;;;;5015430;28;20377;-68
2022/08/27 01:33:55;;;;;;;;;;;;;;;;;;5016017;28;19906;-68
2022/08/27 01:36:21;;;;;;;;;;;;;;;;;;5016124;28;19912;-67
2022/08/27 01:38:47;;;;;;;;;;;;;;;;;;5015634;28;19905;-67
2022/08/27 01:41:12;;;;;;;;;;;;;;;;;;5014756;28;19905;-67
2022/08/27 01:43:38;;;;;;;;;;;;;;;;;;5015941;28;19909;-68
2022/08/27 01:46:05;;;;;;;;;;;;;;;;;;5015559;28;19906;-67
2022/08/27 01:48:30;;;;;;;;;;;;;;;;;;5016119;28;19945;-67
2022/08/27 01:50:56;;;;;;;;;;;;;;;;;;5014627;28;19906;-68
2022/08/27 01:53:22;;;;;;;;;;;;;;;;;;5015529;28;19906;-68
2022/08/27 01:55:48;;;;;;;;;;;;;;;;;;5015746;28;19929;-68
2022/08/27 01:58:14;;;;;;;;;;;;;;;;;;5014867;28;20010;-68
2022/08/27 02:00:40;;;;;;;;;;;;;;;;;;5015759;28;19910;-68
2022/08/27 02:03:06;;;;;;;;;;;;;;;;;;5014832;28;19913;-68
2022/08/27 02:05:32;;;;;;;;;;;;;;;;;;5015606;28;19905;-68
2022/08/27 02:07:58;;;;;;;;;;;;;;;;;;5016100;28;19949;-68
2022/08/27 02:10:23;;;;;;;;;;;;;;;;;;5015363;28;19909;-68
2022/08/27 02:12:50;;;;;;;;;;;;;;;;;;5015623;28;19944;-68
2022/08/27 02:15:16;;;;;;;10.70;2.80;;;;;;;;;;5015895;28;19973;-66
2022/08/27 02:17:42;;;;;;;6.90;2.30;;;;;;;;;;5014145;28;20279;-68
2022/08/27 02:20:09;;;;;;;6.43;2.47;;;;;;;;;;5013659;28;20187;-68
2022/08/27 02:22:36;;;;;;;7.20;2.70;;;;;;;;;;5017360;28;20266;-68
2022/08/27 02:25:02;;;;;;;6.10;2.53;;;;;;;;;;5017180;28;20195;-68
2022/08/27 02:27:28;;;;;;;8.23;2.27;;;;;;;;;;5018141;28;20175;-68
2022/08/27 02:29:54;;;;;;;8.20;3.10;;;;;;;;;;5018108;28;20184;-67
2022/08/27 02:32:21;;;;;;;7.17;2.40;;;;;;;;;;5018245;28;20648;-67
2022/08/27 02:34:47;;;;;;;9.17;2.43;;;;;;;;;;5018581;28;20624;-67
2022/08/27 02:37:14;;;;;;;13.87;3.10;;;;;;;;;;5018180;28;20553;-67
2022/08/27 02:39:41;;;;;;;8.67;2.80;;;;;;;;;;5018548;28;20628;-68
2022/08/27 02:42:06;;;;;;;5.83;2.50;;;;;;;;;;5017993;28;20172;-68
2022/08/27 02:44:34;;;;;;;7.83;2.60;;;;;;;;;;5017241;28;20675;-68
2022/08/27 02:47:01;;;;;;;7.13;2.30;;;;;;;;;;5017020;28;20644;-68
2022/08/27 02:49:27;;;;;;;4.80;2.37;;;;;;;;;;5017300;28;20648;-68
2022/08/27 02:51:57;;;;;;;5.47;2.60;;;;;;;;;;5015617;28;20264;-68
2022/08/27 02:54:23;;;;;;;5.47;2.60;;;;;;;;;;5017308;28;20223;-68
2022/08/27 02:56:51;;;;;;;7.37;3.00;;;;;;;;;;5016936;28;20649;-68
2022/08/27 02:59:17;;;;;;;7.97;2.43;;;;;;;;;;5016769;28;20242;-68
2022/08/27 03:01:43;;;;;;;6.50;2.40;;;;;;;;;;5018109;28;20544;-69
2022/08/27 03:04:09;;;;;;;6.90;3.00;;;;;;;;;;5016579;28;20223;-69
2022/08/27 03:06:35;;;;;;;6.23;2.50;;;;;;;;;;5017464;28;20176;-69
2022/08/27 03:09:01;;;;;;;7.53;2.67;;;;;;;;;;5017446;28;20226;-69
2022/08/27 03:11:27;;;;;;;7.60;3.10;;;;;;;;;;5017225;28;20183;-69
2022/08/27 03:13:53;;;;;;;4.30;2.40;;;;;;;;;;5017709;28;20200;-69
2022/08/27 03:16:19;;;;;;;6.53;2.80;;;;;;;;;;5016625;28;20184;-69
2022/08/27 03:18:45;;;;;;;8.23;2.50;;;;;;;;;;5017716;28;20183;-68
2022/08/27 03:21:17;;;;;;;5.63;2.57;;;;;;;;;;5015935;28;20203;-69
2022/08/27 03:23:43;;;;;;;5.73;2.70;;;;;;;;;;5017126;28;20641;-70
2022/08/27 03:26:10;;;;;;;5.93;3.13;;;;;;;;;;5016078;28;20208;-69
2022/08/27 03:28:36;;;;;;;7.87;2.47;;;;;;;;;;5017282;28;20180;-67
2022/08/27 03:31:03;;;;;;;6.33;2.50;;;;;;;;;;5017516;28;20179;-69
2022/08/27 03:33:30;;;;;;;6.93;2.67;;;;;;;;;;5015607;28;20212;-70
2022/08/27 03:35:57;;;;;;;5.60;2.63;;;;;;;;;;5017325;28;20188;-69
2022/08/27 03:38:23;;;;;;;9.10;2.83;;;;;;;;;;5017181;28;20180;-70
2022/08/27 03:40:49;;;;;;;9.10;2.80;;;;;;;;;;5016121;28;20211;-69
2022/08/27 03:43:16;;;;;;;10.07;2.93;;;;;;;;;;5017403;28;20211;-67
2022/08/27 03:45:42;;;;;;;7.50;2.57;;;;;;;;;;5017592;28;20546;-67
2022/08/27 03:48:09;;;;;;;6.23;2.60;;;;;;;;;;5016860;28;20550;-67
2022/08/27 03:50:37;;;;;;;7.60;2.97;;;;;;;;;;5015881;28;20607;-68
2022/08/27 03:53:02;;;;;;;7.53;2.97;;;;;;;;;;5017389;28;20203;-67
2022/08/27 03:55:28;;;;;;;5.07;2.80;;;;;;;;;;5015976;28;20190;-66
2022/08/27 03:57:54;;;;;;;6.33;3.03;;;;;;;;;;5016717;28;20182;-67
2022/08/27 04:00:23;;;;;;;5.57;2.93;;;;;;;;;;5015673;28;20193;-67
2022/08/27 04:02:49;;;;;;;8.37;3.53;;;;;;;;;;5015578;28;20229;-66
2022/08/27 04:05:15;;;;;;;6.70;3.10;;;;;;;;;;5015645;28;20271;-68
2022/08/27 04:07:43;;;;;;;9.00;3.33;;;;;;;;;;5017294;28;20172;-67
2022/08/27 04:10:10;;;;;;;6.57;3.60;;;;;;;;;;5016617;28;20719;-67
2022/08/27 04:12:36;;;;;;;11.00;3.90;;;;;;;;;;5015400;28;20207;-67
2022/08/27 04:15:03;;;;;;;6.43;3.43;;;;;;;;;;5015380;28;20188;-67
2022/08/27 04:17:29;;;;;;;5.57;3.03;;;;;;;;;;5016183;28;20195;-67
2022/08/27 04:19:56;;;;;;;7.07;3.60;;;;;;;;;;5015528;28;20184;-67
2022/08/27 04:22:22;;;;;;;7.03;3.30;;;;;;;;;;5015155;28;20183;-67
2022/08/27 04:24:48;;;;;;;7.97;3.43;;;;;;;;;;5015493;28;20171;-68
2022/08/27 04:27:15;;;;;;;8.90;3.43;;;;;;;;;;5015350;28;20183;-68
2022/08/27 04:29:41;;;;;;;11.53;3.37;;;;;;;;;;5015499;28;20545;-68
2022/08/27 04:32:07;;;;;;;4.73;2.70;;;;;;;;;;5014340;28;20270;-68
2022/08/27 04:34:33;;;;;;;8.23;3.20;;;;;;;;;;5016181;28;20641;-68
2022/08/27 04:36:59;;;;;;;7.50;3.20;;;;;;;;;;5016887;28;20184;-68
2022/08/27 04:39:26;;;;;;;7.33;2.90;;;;;;;;;;5037622;23;20235;-69
2022/08/27 04:41:54;;;;;;;8.13;3.57;;;;;;;;;;5013849;28;20173;-69
2022/08/27 04:44:21;;;;;;;11.20;3.20;;;;;;;;;;5013470;28;20199;-68
2022/08/27 04:46:48;;;;;;;7.27;3.67;;;;;;;;;;5014101;28;20249;-68
2022/08/27 04:49:15;;;;;;;9.37;2.77;;;;;;;;;;5013870;28;20234;-68
2022/08/27 04:51:41;;;;;;;;;;;;;;;;;;5014030;28;20603;-68
2022/08/27 04:54:07;;;;;;;;;;;;;;;;;;5013911;28;19906;-69
2022/08/27 04:56:33;;;;;;;;;;;;;;;;;;5013957;28;20286;-68
2022/08/27 04:59:02;;;;;;;9.70;3.37;;;;;;;;;;5013646;28;20047;-68
2022/08/27 05:01:28;;;;;;;6.00;3.00;;;;;;;;;;5013501;28;20209;-68
2022/08/27 05:03:54;;;;;;;7.63;3.13;;;;;;;;;;5013617;28;20287;-68
2022/08/27 05:06:21;;;;;;;7.87;3.00;;;;;;;;;;5012173;28;20186;-68
2022/08/27 05:08:47;;;;;;;11.33;3.80;;;;;;;;;;5013276;28;20243;-68
2022/08/27 05:11:14;;;;;;;10.07;2.97;;;;;;;;;;5013308;28;20183;-68
2022/08/27 05:13:41;;;;;;;7.17;2.50;;;;;;;;;;5013403;28;20586;-68
2022/08/27 05:16:08;;;;;;;7.73;2.97;;;;;;;;;;5013720;28;20247;-68
2022/08/27 05:18:35;;;;;;;6.10;2.63;;;;;;;;;;5013308;28;20203;-68
2022/08/27 05:21:02;;;;;;;9.47;3.37;;;;;;;;;;5012061;28;20179;-69
2022/08/27 05:23:27;;;;;;;9.50;2.73;;;;;;;;;;5012142;28;20204;-69
2022/08/27 05:25:54;;;;;;;5.73;2.70;;;;;;;;;;5013453;28;20247;-68
2022/08/27 05:28:21;;;;;;;8.67;2.63;;;;;;;;;;5013233;28;20180;-68
2022/08/27 05:30:49;;;;;;;6.07;2.23;;;;;;;;;;5013382;28;20180;-69
2022/08/27 05:33:16;;;;;;;6.83;3.07;;;;;;;;;;5011949;28;20241;-69
2022/08/27 05:35:53;;;;;;;7.63;2.60;;;;;;;;;;5013126;28;20214;-68
2022/08/27 05:38:19;;;;;;;4.23;2.43;;;;;;;;;;5013561;28;20199;-69
2022/08/27 05:40:49;;;;;;;5.17;2.87;;;;;;;;;;5013493;28;20671;-68
2022/08/27 05:43:15;;;;;;;4.30;2.23;;;;;;;;;;5013088;28;20576;-68
2022/08/27 05:45:46;;;;;;;5.90;2.10;;;;;;;;;;5013672;28;20225;-68
2022/08/27 05:48:14;;;;;;;6.33;2.43;;;;;;;;;;5013087;28;20195;-68
2022/08/27 05:50:42;;;;;;;6.70;2.50;;;;;;;;;;5013363;28;20199;-68
2022/08/27 05:53:08;;;;;;;8.20;2.97;;;;;;;;;;5013379;28;20594;-69
2022/08/27 05:55:38;;;;;;;5.93;2.57;;;;;;;;;;5014359;28;20183;-68
2022/08/27 05:58:05;;;;;;;6.67;2.63;;;;;;;;;;5016860;28;20180;-68
2022/08/27 06:03:36;;;;;;;6.83;2.27;;;;;;;;;;4956401;29;20311;-68
2022/08/27 06:06:04;;;;;;;6.43;2.50;;;;;;;;;;4956206;29;20186;-68
2022/08/27 06:08:30;;;;;;;9.50;2.87;;;;;;;;;;4974878;28;20219;-68
2022/08/27 06:10:55;;;;;;;6.67;2.53;;;;;;;;;;5016505;28;20176;-68
2022/08/27 06:13:22;;;;;;;5.20;2.50;;;;;;;;;;5016852;28;20176;-68
2022/08/27 06:15:48;;;;;;;9.40;2.53;;;;;;;;;;5015234;28;20652;-68
2022/08/27 06:18:14;;;;;;;8.57;2.67;;;;;;;;;;5016610;28;20195;-69
2022/08/27 06:20:40;;;;;;;7.37;2.50;;;;;;;;;;5016574;28;20187;-69
2022/08/27 06:23:06;;;;;;;8.43;2.63;;;;;;;;;;5016649;28;20676;-68
2022/08/27 06:25:32;;;;;;;4.83;2.03;;;;;;;;;;5016346;28;20182;-68
2022/08/27 06:27:58;;;;;;;6.00;2.33;;;;;;;;;;5016314;28;20258;-69
2022/08/27 06:30:25;;;;;;;7.07;2.47;;;;;;;;;;5016118;28;20199;-68
2022/08/27 06:32:51;;;;;;;4.23;2.07;;;;;;;;;;5016441;28;20202;-68
2022/08/27 06:35:17;;;;;;;4.17;2.40;;;;;;;;;;5014918;28;20187;-66
2022/08/27 06:37:44;;;;;;;8.13;2.67;;;;;;;;;;5016624;28;20636;-67
2022/08/27 06:40:10;;;;;;;3.53;2.10;;;;;;;;;;5014758;28;20216;-67
2022/08/27 06:42:37;;;;;;;8.50;3.00;;;;;;;;;;5024782;28;20207;-69
2022/08/27 06:45:03;;;;;;;9.20;2.77;;;;;;;;;;5019603;28;20190;-68
2022/08/27 06:47:30;;;;;;;4.47;2.10;;;;;;;;;;5016042;28;20184;-67
2022/08/27 06:49:57;;;;;;;5.00;2.03;;;;;;;;;;5016100;28;20196;-67
2022/08/27 06:52:23;;;;;;;4.50;2.37;;;;;;;;;;5015932;28;20176;-67
2022/08/27 06:54:49;;;;;;;6.27;2.63;;;;;;;;;;5014650;28;20283;-67
2022/08/27 06:57:15;;;;;;;6.20;2.90;;;;;;;;;;5015836;28;20543;-67
2022/08/27 06:59:42;;;;;;;5.03;2.97;;;;;;;;;;5017701;28;20207;-67
2022/08/27 07:02:08;;;;;;;6.00;2.50;;;;;;;;;;5017201;28;20195;-68
2022/08/27 07:04:34;;;;;;;7.17;2.83;;;;;;;;;;5015600;28;20196;-67
2022/08/27 07:07:01;;;;;;;6.40;2.37;;;;;;;;;;5015898;28;20259;-68
2022/08/27 07:09:29;;;;;;;5.50;2.40;;;;;;;;;;5018277;28;20196;-68
2022/08/27 07:11:56;;;;;;;7.00;3.03;;;;;;;;;;5014452;28;20548;-67
2022/08/27 07:14:22;;;;;;;5.63;2.43;;;;;;;;;;5014362;28;20568;-67
2022/08/27 07:16:49;;;;;;;4.37;2.37;;;;;;;;;;5014038;28;20184;-67
2022/08/27 07:19:15;;;;;;;5.63;2.83;;;;;;;;;;5014028;28;20207;-68
2022/08/27 07:21:41;;;;;;;4.73;2.57;;;;;;;;;;5015576;28;20223;-67
2022/08/27 07:24:08;;;;;;;10.43;2.57;;;;;;;;;;5015108;28;20195;-67
2022/08/27 07:26:37;;;;;;;5.10;2.30;;;;;;;;;;5015164;28;20168;-67
2022/08/27 07:29:04;;;;;;;4.87;2.23;;;;;;;;;;5015346;28;20202;-67
2022/08/27 07:31:30;;;;;;;4.57;2.50;;;;;;;;;;5015363;28;20200;-69
2022/08/27 07:33:56;;;;;;;9.00;2.67;;;;;;;;;;5013759;28;20190;-67
2022/08/27 07:36:23;;;;;;;6.77;2.60;;;;;;;;;;5013730;28;20553;-67
2022/08/27 07:38:51;;;;;;;9.17;2.93;;;;;;;;;;5014715;28;20223;-69
2022/08/27 07:41:17;;;;;;;6.63;2.53;;;;;;;;;;5014919;28;20666;-67
2022/08/27 07:46:28;;;;;;;9.50;2.60;;;;;;;;;;5015132;28;20187;-67
2022/08/27 07:48:55;;;;;;;5.83;2.70;;;;;;;;;;5015051;28;20640;-67
2022/08/27 07:51:22;;;;;;;8.70;2.37;;;;;;;;;;5014851;28;20179;-67
2022/08/27 07:53:48;;;;;;;7.57;2.27;;;;;;;;;;5015102;28;20202;-67
2022/08/27 07:56:14;;;;;;;4.33;2.00;;;;;;;;;;5013417;28;20180;-67
2022/08/27 07:58:40;;;;;;;3.70;2.07;;;;;;;;;;5014491;28;20664;-67
2022/08/27 08:01:07;;;;;;;9.40;2.70;;;;;;;;;;5014809;28;20180;-67
2022/08/27 08:03:33;;;;;;;9.00;2.57;;;;;;;;;;5014985;28;20566;-69
2022/08/27 08:06:03;;;;;;;3.73;2.00;;;;;;;;;;5014856;28;20179;-69
2022/08/27 08:08:29;;;;;;;6.20;2.33;;;;;;;;;;5014418;28;20227;-68
2022/08/27 08:10:58;;;;;;;5.43;2.20;;;;;;;;;;5013187;28;20241;-68
2022/08/27 08:13:25;;;;;;;4.33;2.30;;;;;;;;;;5014799;28;20583;-67
2022/08/27 08:15:51;;;;;;;3.33;2.17;;;;;;;;;;5013028;28;20679;-68
2022/08/27 08:18:17;;;;;;;5.73;2.57;;;;;;;;;;5012345;28;20180;-67
2022/08/27 08:20:43;;;;;;;10.47;2.77;;;;;;;;;;5014326;28;20214;-68
2022/08/27 08:23:09;;;;;;;7.03;2.13;;;;;;;;;;5014624;28;20200;-69
2022/08/27 08:25:36;;;;;;;5.50;2.30;;;;;;;;;;5014409;28;20180;-68
2022/08/27 08:28:02;;;;;;;5.73;2.40;;;;;;;;;;5014969;28;20578;-68
2022/08/27 08:30:28;;;;;;;6.00;2.90;;;;;;;;;;5014278;28;20240;-68
2022/08/27 08:32:54;;;;;;;6.10;2.50;;;;;;;;;;5013024;28;20554;-68
2022/08/27 08:35:20;;;;;;;9.97;3.20;;;;;;;;;;5014267;28;20188;-68
2022/08/27 08:37:46;;;;;;;4.63;2.70;;;;;;;;;;5014349;28;20180;-68
2022/08/27 08:40:24;;;;;;;10.20;3.00;;;;;;;;;;5013793;28;20211;-68
2022/08/27 08:42:51;;;;;;;5.20;2.30;;;;;;;;;;5014401;28;20199;-67
2022/08/27 08:45:22;;;;;;;4.70;2.50;;;;;;;;;;5014087;28;20175;-67
2022/08/27 08:47:52;;;;;;;7.50;2.50;;;;;;;;;;5014058;28;20163;-68
2022/08/27 08:50:37;;;;;;;6.33;2.67;;;;;;;;;;5013818;28;20766;-68
2022/08/27 08:53:18;;;;;;;7.67;2.60;;;;;;;;;;5012755;28;20234;-68
2022/08/27 08:55:47;;;;;;;7.83;2.63;;;;;;;;;;5012724;28;20174;-68
2022/08/27 08:58:33;;;;;;;5.97;2.63;;;;;;;;;;5012479;28;20663;-68
2022/08/27 09:01:00;;;;;;;5.60;2.30;;;;;;;;;;5014285;28;20238;-68
2022/08/27 09:03:27;;;;;;;5.53;2.30;;;;;;;;;;5012632;28;20204;-68
2022/08/27 09:06:01;;;;;;;8.03;2.50;;;;;;;;;;5014208;28;20688;-67
2022/08/27 09:08:32;;;;;;;9.20;2.70;;;;;;;;;;5012762;28;20639;-68
2022/08/27 09:11:05;;;;;;;7.47;3.17;;;;;;;;;;5012714;28;20184;-67
2022/08/27 09:13:34;;;;;;;5.13;2.50;;;;;;;;;;5013747;28;20187;-68
2022/08/27 09:16:01;;;;;;;6.67;2.80;;;;;;;;;;5012350;28;20280;-68
2022/08/27 09:18:28;;;;;;;5.93;2.90;;;;;;;;;;5012347;28;20656;-67
2022/08/27 09:21:06;;;;;;;6.47;2.50;;;;;;;;;;5012516;28;20585;-67
2022/08/27 09:23:37;;;;;;;5.20;2.70;;;;;;;;;;5012417;28;20250;-69
2022/08/27 09:26:03;;;;;;;5.00;2.50;;;;;;;;;;5013528;28;20169;-67
2022/08/27 09:31:16;;;;;;;7.30;2.60;;;;;;;;;;5015886;28;20190;-66
2022/08/27 09:33:42;;;;;;;5.83;2.63;;;;;;;;;;5017482;28;20206;-68
2022/08/27 09:36:11;;;;;;;6.63;2.90;;;;;;;;;;5016261;28;20184;-68
2022/08/27 09:38:39;;;;;;;6.47;3.00;;;;;;;;;;5015921;28;20219;-68
2022/08/27 09:41:07;;;;;;;3.70;2.27;;;;;;;;;;5017454;28;20172;-68
2022/08/27 09:43:35;;;;;;;8.33;2.90;;;;;;;;;;5017129;28;20286;-69
2022/08/27 09:46:06;;;;;;;9.70;2.70;;;;;;;;;;5017412;28;20168;-68
2022/08/27 09:48:36;;;;;;;6.13;2.67;;;;;;;;;;5017267;28;20203;-68
2022/08/27 09:51:08;;;;;;;9.93;2.80;;;;;;;;;;5015945;28;20259;-68
2022/08/27 09:53:47;;;;;;;8.87;2.73;;;;;;;;;;5017811;28;20233;-68
2022/08/27 09:56:21;;;;;;;6.33;2.70;;;;;;;;;;5017500;28;20179;-69
2022/08/27 09:58:50;;;;;;;5.87;2.50;;;;;;;;;;5015825;28;20207;-68
2022/08/27 10:01:16;;;;;;;7.70;3.30;;;;;;;;;;5015954;28;20180;-67
2022/08/27 10:03:42;;;;;;;6.77;2.50;;;;;;;;;;5016765;28;20199;-68
2022/08/27 10:06:09;;;;;;;7.53;2.93;;;;;;;;;;5017171;28;20751;-68
2022/08/27 10:08:35;;;;;;;6.20;2.50;;;;;;;;;;5015780;28;20633;-68
2022/08/27 10:11:10;;;;;;;6.50;2.83;;;;;;;;;;5017248;28;20203;-68
2022/08/27 10:13:45;;;;;;;10.13;2.60;;;;;;;;;;5018840;28;20173;-68
2022/08/27 10:16:23;;;;;;;4.50;2.43;;;;;;;;;;5018921;28;20187;-67
2022/08/27 10:18:58;;;;;;;5.57;2.70;;;;;;;;;;5020726;28;20743;-67
2022/08/27 10:21:38;;;;;;;7.70;2.80;;;;;;;;;;5021744;28;20179;-67
2022/08/27 10:24:13;;;;;;;7.50;2.73;;;;;;;;;;5022071;28;20191;-67
2022/08/27 10:26:57;;;;;;;6.37;2.90;;;;;;;;;;5020655;28;20222;-67
2022/08/27 10:29:39;;;;;;;5.67;2.53;;;;;;;;;;5016743;28;20195;-67
2022/08/27 10:32:11;;;;;;;3.53;2.40;;;;;;;;;;5016187;28;20277;-67
2022/08/27 10:34:57;;;;;;;3.93;2.70;;;;;;;;;;5016250;28;20200;-67
2022/08/27 10:37:36;;;;;;;7.00;2.93;;;;;;;;;;5015931;28;20195;-67
2022/08/27 10:40:14;;;;;;;6.20;2.83;;;;;;;;;;5039523;23;20297;-70
2022/08/27 10:42:52;;;;;;;7.43;2.87;;;;;;;;;;5017412;28;20572;-71
2022/08/27 10:45:18;;;;;;;9.50;3.10;;;;;;;;;;5017460;28;20651;-69
2022/08/27 10:47:44;;;;;;;7.87;3.13;;;;;;;;;;5016319;28;20184;-70
2022/08/27 10:50:16;;;;;;;7.83;3.40;;;;;;;;;;5017145;28;20291;-70
2022/08/27 10:52:48;;;;;;;7.87;3.40;;;;;;;;;;5015865;28;20172;-70
2022/08/27 10:55:27;;;;;;;6.43;3.37;;;;;;;;;;5016946;28;20177;-70
2022/08/27 10:58:06;;;;;;;9.40;3.23;;;;;;;;;;5016459;28;20242;-71
2022/08/27 11:00:47;;;;;;;6.20;3.60;;;;;;;;;;5017674;28;20191;-73
2022/08/27 11:03:22;;;;;;;7.33;3.47;;;;;;;;;;5017261;28;20294;-69
2022/08/27 11:05:49;;;;;;;4.33;3.20;;;;;;;;;;5017690;28;20166;-72
2022/08/27 11:08:34;;;;;;;6.20;3.03;;;;;;;;;;5016375;28;20184;-69
2022/08/27 11:11:15;;;;;;;11.80;3.37;;;;;;;;;;5018228;28;20244;-70
2022/08/27 11:13:50;;;;;;;6.73;3.03;;;;;;;;;;5017635;28;20183;-71
2022/08/27 11:16:20;;;;;;;5.33;3.03;;;;;;;;;;5016782;28;20184;-71
2022/08/27 11:18:51;;;;;;;5.13;3.20;;;;;;;;;;5017098;28;20184;-70
2022/08/27 11:21:21;;;;;;;6.03;3.10;;;;;;;;;;5017780;28;20199;-70
2022/08/27 11:23:52;;;;;;;7.23;2.40;;;;;;;;;;5015895;28;20207;-70
2022/08/27 11:26:18;;;;;;;5.20;2.63;;;;;;;;;;5016985;28;20164;-71
2022/08/27 11:28:50;;;;;;;6.00;2.57;;;;;;;;;;5017123;28;20222;-69
2022/08/27 11:31:23;;;;;;;6.00;2.50;;;;;;;;;;5016049;28;20231;-71
2022/08/27 11:34:07;;;;;;;6.23;2.63;;;;;;;;;;5015668;28;20195;-70
2022/08/27 11:36:52;;;;;;;5.27;2.60;;;;;;;;;;5016163;28;20621;-71
2022/08/27 11:39:33;;;;;;;6.93;5.50;;;;;;;;;;5015639;28;20551;-69
2022/08/27 11:41:59;;;;;;;3.23;2.97;;;;;;;;;;5016948;28;20176;-70
2022/08/27 11:44:25;;;;;;;5.90;2.40;;;;;;;;;;5016796;28;20204;-71
2022/08/27 11:46:56;;;;;;;4.33;2.67;;;;;;;;;;5016999;28;20659;-70
2022/08/27 11:49:34;;;;;;;3.57;2.37;;;;;;;;;;5016473;28;20671;-70
2022/08/27 11:52:02;;;;;;;5.23;2.73;;;;;;;;;;5016915;28;20157;-69
2022/08/27 11:54:30;;;;;;;5.03;2.50;;;;;;;;;;5015604;28;20581;-69
2022/08/27 11:56:56;;;;;;;12.73;3.20;;;;;;;;;;5016166;28;20182;-69
2022/08/27 11:59:22;;;;;;;8.03;3.17;;;;;;;;;;5016367;28;20212;-69
2022/08/27 12:01:50;;;;;;;4.23;3.07;;;;;;;;;;5016336;28;20696;-70
2022/08/27 12:04:21;;;;;;;5.20;3.10;;;;;;;;;;5015452;28;20192;-71
2022/08/27 12:06:52;;;;;;;5.57;3.03;;;;;;;;;;5014335;28;20271;-71
2022/08/27 12:09:19;;;;;;;5.80;2.73;;;;;;;;;;5015486;28;20227;-69
2022/08/27 12:11:53;;;;;;;7.27;3.50;;;;;;;;;;5015431;28;20172;-70
2022/08/27 12:14:45;;;;;;;4.73;2.40;;;;;;;;;;5016954;28;20544;-70
2022/08/27 12:17:29;;;;;;;8.50;2.60;;;;;;;;;;5013750;28;20198;-70
2022/08/27 12:20:01;;;;;;;6.73;2.40;;;;;;;;;;5016436;28;20200;-70
2022/08/27 12:23:38;;;;;;;3.57;2.60;;;;;;;;;;5015513;28;20180;-69
2022/08/27 12:25:25;;;;;;;3.03;2.27;;;;;;;;;;5014558;28;20196;-69
2022/08/27 12:27:56;;;;;;;7.27;2.50;;;;;;;;;;5015139;28;20636;-69
2022/08/27 12:30:28;;;;;;;4.57;2.30;;;;;;;;;;5013611;28;20222;-69
2022/08/27 12:32:55;;;;;;;5.03;2.37;;;;;;;;;;5016157;28;20655;-69
2022/08/27 12:35:28;;;;;;;5.07;2.17;;;;;;;;;;5018364;28;20198;-70
2022/08/27 12:37:55;;;;;;;6.27;2.57;;;;;;;;;;5016290;28;20161;-69
2022/08/27 12:40:22;;;;;;;5.53;2.37;;;;;;;;;;5014527;28;20215;-70
2022/08/27 12:42:48;;;;;;;5.73;3.03;;;;;;;;;;5014790;28;20175;-69
2022/08/27 12:45:23;;;;;;;4.83;2.43;;;;;;;;;;5013272;28;20172;-69
2022/08/27 12:47:49;;;;;;;4.80;2.10;;;;;;;;;;5014147;28;20548;-70
2022/08/27 12:50:20;;;;;;;5.10;2.30;;;;;;;;;;5014519;28;20652;-70
2022/08/27 12:52:58;;;;;;;4.37;2.27;;;;;;;;;;5014936;28;20175;-71
2022/08/27 12:55:28;;;;;;;4.40;2.23;;;;;;;;;;5014416;28;20180;-69
2022/08/27 12:58:14;;;;;;;7.23;2.43;;;;;;;;;;5014735;28;20179;-69
2022/08/27 13:00:59;;;;;;;7.17;2.30;;;;;;;;;;5013306;28;20817;-69
2022/08/27 13:03:31;;;;;;;4.57;2.60;;;;;;;;;;5012666;28;20212;-70
2022/08/27 13:05:59;;;;;;;4.03;2.50;;;;;;;;;;5012974;28;20708;-69
2022/08/27 13:08:30;;;;;;;6.27;3.27;;;;;;;;;;5014562;28;20172;-70
2022/08/27 13:10:56;;;;;;;6.73;2.27;;;;;;;;;;5013382;28;20221;-69
2022/08/27 13:13:24;;;;;;;5.17;2.07;;;;;;;;;;5013193;28;20229;-69
2022/08/27 13:15:57;;;;;;;3.77;2.30;;;;;;;;;;5014814;28;20660;-69
2022/08/27 13:18:23;;;;;;;6.50;2.27;;;;;;;;;;5013581;28;20283;-69
2022/08/27 13:20:51;;;;;;;6.63;2.30;;;;;;;;;;5014630;28;20203;-70
2022/08/27 13:23:18;;;;;;;4.97;2.10;;;;;;;;;;5013320;28;20210;-70
2022/08/27 13:26:02;;;;;;;4.87;2.50;;;;;;;;;;5014794;28;20547;-69
2022/08/27 13:28:29;;;;;;;5.27;2.20;;;;;;;;;;5014435;28;20180;-70
2022/08/27 13:30:56;;;;;;;4.53;2.00;;;;;;;;;;5014891;28;20215;-69
2022/08/27 13:33:23;;;;;;;9.83;2.50;;;;;;;;;;5013197;28;20194;-69
2022/08/27 13:35:49;;;;;;;7.43;2.53;;;;;;;;;;5013077;28;20671;-69
2022/08/27 13:38:16;;;;;;;10.33;3.27;;;;;;;;;;5014404;28;20229;-69
2022/08/27 13:40:54;;;;;;;8.37;2.27;;;;;;;;;;5013321;28;20227;-70
2022/08/27 13:43:21;;;;;;;4.60;2.33;;;;;;;;;;5013139;28;20567;-69
2022/08/27 13:45:48;;;;;;;3.47;1.97;;;;;;;;;;5014599;28;20219;-69
2022/08/27 13:48:17;;;;;;;4.53;2.27;;;;;;;;;;5014355;28;20246;-70
2022/08/27 13:50:48;;;;;;;4.30;2.10;;;;;;;;;;5012947;28;20577;-70
2022/08/27 13:56:03;;;;;;;6.10;2.40;;;;;;;;;;5014795;28;20175;-70
2022/08/27 13:58:30;;;;;;;6.43;2.23;;;;;;;;;;5012796;28;20180;-69
2022/08/27 14:01:10;;;;;;;3.70;2.10;;;;;;;;;;5013893;28;20239;-69
2022/08/27 14:03:46;;;;;;;2.90;2.00;;;;;;;;;;5014382;28;20199;-69
2022/08/27 14:06:22;;;;;;;4.37;2.40;;;;;;;;;;5014238;28;20156;-69
2022/08/27 14:08:48;;;;;;;6.17;2.17;;;;;;;;;;5014205;28;20164;-69
2022/08/27 14:11:22;;;;;;;2.87;2.17;;;;;;;;;;5012753;28;20574;-69
2022/08/27 14:13:48;;;;;;;5.43;1.90;;;;;;;;;;5014192;28;20218;-69
2022/08/27 14:16:22;;;;;;;5.93;2.03;;;;;;;;;;5014201;28;20234;-69
2022/08/27 14:18:51;;;;;;;5.07;2.40;;;;;;;;;;5016360;28;20271;-69
2022/08/27 14:21:17;;;;;;;3.80;2.10;;;;;;;;;;5016382;28;20200;-69
2022/08/27 14:23:43;;;;;;;2.97;1.83;;;;;;;;;;5017499;28;20554;-69
2022/08/27 14:26:09;;;;;;;6.13;2.33;;;;;;;;;;5018079;28;20585;-70
2022/08/27 14:28:35;;;;;;;5.77;1.80;;;;;;;;;;5016697;28;20184;-70
2022/08/27 14:31:01;;;;;;;3.77;1.97;;;;;;;;;;5017383;28;20629;-69
2022/08/27 14:33:27;;;;;;;4.00;2.07;;;;;;;;;;5017125;28;20258;-69
2022/08/27 14:35:53;;;;;;;6.13;2.50;;;;;;;;;;5017455;28;20207;-69
2022/08/27 14:38:21;;;;;;;3.93;2.03;;;;;;;;;;5016973;28;20176;-69
2022/08/27 14:40:49;;;;;;;3.60;2.20;;;;;;;;;;5016550;28;20222;-69
2022/08/27 14:43:15;;;;;;;5.40;2.20;;;;;;;;;;5015638;28;20695;-69
2022/08/27 14:45:42;;;;;;;4.37;2.30;;;;;;;;;;5017189;28;20255;-69
2022/08/27 14:48:09;;;;;;;3.93;2.30;;;;;;;;;;5017111;28;20180;-69
2022/08/27 14:50:36;;;;;;;6.00;2.30;;;;;;;;;;5016859;28;20572;-70
2022/08/27 14:53:03;;;;;;;5.43;2.40;;;;;;;;;;5015413;28;20605;-70
2022/08/27 14:55:30;;;;;;;5.73;2.40;;;;;;;;;;5016895;28;20187;-70
2022/08/27 14:57:56;;;;;;;5.03;2.20;;;;;;;;;;5017288;28;20612;-70
2022/08/27 15:00:22;;;;;;;5.00;2.40;;;;;;;;;;5015520;28;20581;-70
2022/08/27 15:02:48;;;;;;;7.23;2.37;;;;;;;;;;5015392;28;20238;-70
2022/08/27 15:05:14;;;;;;;5.90;2.10;;;;;;;;;;5016528;28;20180;-70
2022/08/27 15:07:40;;;;;;;7.80;2.50;;;;;;;;;;5016477;28;20670;-69
2022/08/27 15:10:06;;;;;;;5.63;2.57;;;;;;;;;;5015269;28;20191;-70
2022/08/27 15:12:39;;;;;;;5.90;2.40;;;;;;;;;;5017528;28;20176;-70
2022/08/27 15:15:06;;;;;;;5.30;2.20;;;;;;;;;;5017693;28;20203;-69
2022/08/27 15:17:32;;;;;;;5.97;2.50;;;;;;;;;;5015680;28;20556;-69
2022/08/27 15:19:58;;;;;;;4.13;2.10;;;;;;;;;;5016256;28;20247;-70